createdAt,value
2023-03-11T00:01:12.503Z,35.97
2023-03-11T00:03:40.260Z,51.05
2023-03-11T00:06:07.521Z,42.88
2023-03-11T00:08:35.145Z,34.95
2023-03-11T00:11:02.407Z,33.67
2023-03-11T00:13:30.579Z,31.67
2023-03-11T00:15:57.976Z,36.55
2023-03-11T00:18:28.065Z,38.55
2023-03-11T00:20:57.825Z,36.05
2023-03-11T00:23:26.388Z,33.15
2023-03-11T00:25:53.612Z,41.10
2023-03-11T00:28:25.285Z,35.60
2023-03-11T00:30:52.822Z,29.73
2023-03-11T00:33:20.750Z,32.25
2023-03-11T00:35:47.859Z,45.17
2023-03-11T00:38:16.624Z,35.65
2023-03-11T00:40:46.624Z,31.73
2023-03-11T00:43:14.718Z,34.20
2023-03-11T00:45:42.291Z,29.95
2023-03-11T00:48:11.348Z,45.15
2023-03-11T00:50:38.595Z,38.10
2023-03-11T00:53:06.914Z,31.40
2023-03-11T00:55:35.203Z,31.73
2023-03-11T00:58:06.931Z,33.60
2023-03-11T01:00:43.288Z,29.80
2023-03-11T01:03:10.744Z,28.35
2023-03-11T01:05:38.063Z,27.85
2023-03-11T01:08:05.791Z,27.10
2023-03-11T01:10:34.528Z,25.40
2023-03-11T01:13:02.912Z,28.02
2023-03-11T01:15:33.762Z,29.60
2023-03-11T01:18:01.930Z,28.88
2023-03-11T01:20:29.073Z,29.10
2023-03-11T01:22:56.785Z,28.75
2023-03-11T01:25:25.167Z,30.10
2023-03-11T01:27:52.498Z,30.85
2023-03-11T01:30:23.116Z,35.25
2023-03-11T01:32:52.278Z,30.73
2023-03-11T01:35:21.479Z,28.48
2023-03-11T01:37:48.893Z,28.92
2023-03-11T01:40:26.122Z,30.55
2023-03-11T01:42:53.810Z,26.73
2023-03-11T01:45:27.098Z,25.10
2023-03-11T01:47:55.243Z,27.92
2023-03-11T01:50:23.262Z,26.23
2023-03-11T01:52:50.878Z,26.02
2023-03-11T01:55:19.604Z,26.60
2023-03-11T01:57:48.213Z,25.40
2023-03-11T02:00:16.341Z,26.92
2023-03-11T02:02:52.564Z,24.40
2023-03-11T02:05:22.216Z,27.02
2023-03-11T02:07:51.202Z,26.58
2023-03-11T02:10:20.720Z,27.42
2023-03-11T02:12:50.150Z,26.15
2023-03-11T02:15:25.091Z,25.55
2023-03-11T02:17:53.646Z,25.83
2023-03-11T02:20:42.660Z,26.42
2023-03-11T02:23:15.094Z,27.05
2023-03-11T02:25:52.951Z,34.55
2023-03-11T02:28:21.540Z,35.00
2023-03-11T02:30:50.918Z,34.15
2023-03-11T02:33:19.553Z,31.58
2023-03-11T02:35:47.892Z,33.65
2023-03-11T02:38:15.387Z,32.53
2023-03-11T02:41:09.775Z,34.30
2023-03-11T02:43:43.500Z,32.40
2023-03-11T02:46:14.265Z,37.60
2023-03-11T02:48:42.304Z,35.47
2023-03-11T02:51:09.324Z,42.92
2023-03-11T02:53:44.152Z,44.33
2023-03-11T02:56:11.206Z,44.97
2023-03-11T02:58:38.931Z,45.78
2023-03-11T03:01:06.198Z,41.92
2023-03-11T03:03:34.275Z,39.15
2023-03-11T03:06:02.223Z,46.10
2023-03-11T03:08:29.543Z,40.80
2023-03-11T03:10:56.983Z,35.70
2023-03-11T03:13:24.500Z,38.05
2023-03-11T03:15:52.195Z,36.03
2023-03-11T03:18:19.589Z,35.13
2023-03-11T03:20:46.804Z,35.58
2023-03-11T03:23:16.819Z,32.58
2023-03-11T03:25:45.077Z,35.70
2023-03-11T03:28:13.332Z,32.50
2023-03-11T03:30:44.655Z,32.38
2023-03-11T03:33:13.434Z,29.98
2023-03-11T03:35:42.915Z,29.63
2023-03-11T03:38:16.500Z,36.10
2023-03-11T03:40:48.028Z,36.92
2023-03-11T03:43:18.240Z,36.40
2023-03-11T03:45:55.079Z,36.30
2023-03-11T03:48:23.367Z,25.50
2023-03-11T03:50:50.975Z,24.08
2023-03-11T03:53:19.181Z,28.20
2023-03-11T03:55:46.798Z,28.92
2023-03-11T03:58:14.876Z,23.67
2023-03-11T04:00:43.834Z,22.27
2023-03-11T04:03:11.446Z,20.85
2023-03-11T04:05:48.335Z,21.25
2023-03-11T04:08:15.851Z,20.05
2023-03-11T04:10:43.978Z,21.10
2023-03-11T04:13:11.670Z,18.10
2023-03-11T04:15:42.313Z,19.40
2023-03-11T04:18:10.202Z,18.88
2023-03-11T04:20:39.026Z,21.48
2023-03-11T04:23:06.352Z,19.15
2023-03-11T04:25:34.422Z,22.70
2023-03-11T04:28:02.176Z,19.25
2023-03-11T04:30:31.627Z,21.77
2023-03-11T04:32:59.087Z,21.60
2023-03-11T04:35:26.285Z,21.27
2023-03-11T04:37:53.925Z,26.95
2023-03-11T04:40:21.983Z,21.83
2023-03-11T04:42:49.584Z,21.42
2023-03-11T04:45:18.507Z,20.08
2023-03-11T04:47:51.759Z,18.90
2023-03-11T04:50:19.995Z,15.75
2023-03-11T04:52:47.919Z,16.27
2023-03-11T04:55:15.793Z,15.80
2023-03-11T04:57:44.066Z,14.82
2023-03-11T05:00:15.790Z,14.30
2023-03-11T05:02:47.367Z,14.03
2023-03-11T05:05:14.540Z,13.18
2023-03-11T05:07:43.323Z,10.80
2023-03-11T05:10:12.034Z,15.95
2023-03-11T05:12:40.742Z,14.13
2023-03-11T05:15:08.602Z,10.50
2023-03-11T05:17:36.104Z,8.77
2023-03-11T05:20:06.289Z,9.65
2023-03-11T05:22:34.282Z,8.15
2023-03-11T05:25:01.846Z,7.95
2023-03-11T05:27:29.947Z,9.38
2023-03-11T05:29:57.902Z,6.53
2023-03-11T05:32:27.249Z,7.25
2023-03-11T05:34:55.299Z,7.15
2023-03-11T05:37:22.798Z,6.53
2023-03-11T05:39:53.049Z,7.13
2023-03-11T05:42:21.629Z,7.03
2023-03-11T05:44:51.833Z,6.47
2023-03-11T05:47:20.020Z,6.22
2023-03-11T05:49:49.283Z,8.85
2023-03-11T05:52:18.746Z,7.30
2023-03-11T05:54:49.890Z,7.65
2023-03-11T05:57:19.160Z,7.38
2023-03-11T05:59:46.250Z,6.57
2023-03-11T06:02:14.465Z,6.90
2023-03-11T06:04:42.117Z,6.72
2023-03-11T06:07:12.210Z,6.43
2023-03-11T06:09:40.035Z,6.18
2023-03-11T06:12:12.186Z,7.18
2023-03-11T06:14:58.267Z,6.70
2023-03-11T06:17:27.034Z,7.43
2023-03-11T06:19:55.323Z,6.60
2023-03-11T06:22:22.865Z,12.23
2023-03-11T06:24:50.093Z,7.43
2023-03-11T06:27:17.666Z,7.43
2023-03-11T06:29:51.595Z,12.50
2023-03-11T06:32:19.094Z,6.90
2023-03-11T06:34:50.579Z,6.22
2023-03-11T06:37:19.117Z,6.70
2023-03-11T06:39:46.211Z,6.50
2023-03-11T06:42:26.864Z,7.85
2023-03-11T06:44:57.454Z,6.30
2023-03-11T06:47:28.722Z,6.20
2023-03-11T06:49:55.889Z,8.48
2023-03-11T06:52:23.296Z,6.32
2023-03-11T06:54:50.457Z,7.20
2023-03-11T06:57:18.173Z,5.65
2023-03-11T06:59:49.845Z,8.15
2023-03-11T07:02:18.611Z,5.50
2023-03-11T07:04:50.305Z,6.22
2023-03-11T07:07:22.796Z,6.38
2023-03-11T07:09:52.070Z,5.43
2023-03-11T07:12:23.034Z,5.97
2023-03-11T07:14:57.731Z,5.18
2023-03-11T07:17:26.830Z,6.38
2023-03-11T07:19:56.740Z,5.95
2023-03-11T07:22:24.096Z,5.25
2023-03-11T07:24:51.209Z,5.65
2023-03-11T07:27:19.776Z,6.22
2023-03-11T07:29:47.019Z,4.82
2023-03-11T07:32:15.198Z,7.22
2023-03-11T07:34:42.425Z,13.35
2023-03-11T07:37:10.055Z,7.53
2023-03-11T07:39:38.700Z,5.28
2023-03-11T07:42:06.197Z,5.43
2023-03-11T07:44:37.134Z,26.60
2023-03-11T07:47:05.975Z,16.13
2023-03-11T07:49:34.232Z,16.38
2023-03-11T07:52:01.617Z,9.25
2023-03-11T07:54:28.681Z,6.15
2023-03-11T07:56:56.013Z,5.78
2023-03-11T07:59:23.268Z,6.15
2023-03-11T08:01:50.766Z,22.15
2023-03-11T08:04:17.981Z,7.35
2023-03-11T08:06:47.559Z,6.93
2023-03-11T08:09:15.022Z,6.43
2023-03-11T08:11:42.615Z,8.52
2023-03-11T08:14:10.081Z,7.47
2023-03-11T08:16:40.046Z,4.43
2023-03-11T08:19:07.219Z,5.80
2023-03-11T08:21:34.998Z,5.93
2023-03-11T08:24:03.358Z,4.75
2023-03-11T08:26:32.224Z,6.15
2023-03-11T08:28:59.674Z,4.70
2023-03-11T08:31:30.081Z,8.23
2023-03-11T08:34:02.659Z,5.75
2023-03-11T08:36:34.318Z,6.63
2023-03-11T08:39:01.934Z,6.90
2023-03-11T08:41:29.665Z,5.90
2023-03-11T08:43:56.707Z,7.03
2023-03-11T08:46:36.735Z,5.15
2023-03-11T08:49:05.017Z,7.93
2023-03-11T08:51:34.258Z,8.25
2023-03-11T08:54:01.928Z,14.27
2023-03-11T08:56:33.078Z,13.10
2023-03-11T08:59:00.447Z,9.35
2023-03-11T09:01:29.746Z,6.30
2023-03-11T09:03:57.381Z,8.10
2023-03-11T09:06:25.520Z,7.72
2023-03-11T09:08:52.622Z,7.13
2023-03-11T09:11:22.084Z,6.63
2023-03-11T09:13:49.980Z,6.57
2023-03-11T09:16:22.496Z,7.15
2023-03-11T09:18:49.862Z,9.15
2023-03-11T09:21:17.655Z,5.78
2023-03-11T09:23:45.244Z,6.63
2023-03-11T09:26:13.473Z,7.43
2023-03-11T09:28:42.250Z,9.88
2023-03-11T09:31:10.204Z,7.50
2023-03-11T09:33:38.813Z,9.35
2023-03-11T09:36:08.477Z,8.35
2023-03-11T09:38:35.518Z,10.00
2023-03-11T09:41:21.357Z,9.32
2023-03-11T09:44:08.754Z,7.15
2023-03-11T09:46:55.799Z,8.55
2023-03-11T09:49:25.977Z,9.57
2023-03-11T09:52:19.174Z,9.13
2023-03-11T09:54:55.718Z,8.63
2023-03-11T09:57:27.197Z,6.22
2023-03-11T09:59:55.031Z,7.57
2023-03-11T10:02:28.211Z,9.02
2023-03-11T10:05:01.099Z,7.63
2023-03-11T10:07:34.218Z,7.88
2023-03-11T10:10:01.500Z,10.25
2023-03-11T10:12:53.626Z,11.23
2023-03-11T10:15:29.873Z,7.90
2023-03-11T10:18:18.881Z,6.53
2023-03-11T10:21:13.335Z,7.13
2023-03-11T10:24:10.011Z,9.30
2023-03-11T10:26:58.337Z,7.32
2023-03-11T10:29:56.282Z,8.02
2023-03-11T10:32:55.959Z,8.63
2023-03-11T10:35:29.187Z,5.47
2023-03-11T10:38:08.004Z,5.93
2023-03-11T10:40:38.409Z,5.68
2023-03-11T10:43:18.820Z,6.43
2023-03-11T10:45:48.862Z,12.88
2023-03-11T10:48:18.929Z,30.30
2023-03-11T10:50:52.656Z,9.95
2023-03-11T10:53:21.128Z,15.68
2023-03-11T10:55:53.620Z,9.65
2023-03-11T10:58:23.875Z,11.48
2023-03-11T11:01:01.558Z,9.85
2023-03-11T11:03:29.148Z,23.00
2023-03-11T11:06:18.393Z,15.63
2023-03-11T11:08:46.847Z,209.77
2023-03-11T11:11:23.079Z,167.68
2023-03-11T11:14:01.977Z,112.72
2023-03-11T11:16:34.250Z,242.95
2023-03-11T11:19:12.670Z,71.78
2023-03-11T11:21:43.547Z,75.20
2023-03-11T11:24:13.425Z,54.40
2023-03-11T11:26:40.828Z,11.13
2023-03-11T11:29:10.700Z,14.82
2023-03-11T11:31:46.062Z,44.45
2023-03-11T11:34:34.314Z,23.77
2023-03-11T11:37:08.884Z,36.78
2023-03-11T11:39:52.830Z,35.63
2023-03-11T11:42:20.755Z,69.15
2023-03-11T11:44:52.079Z,82.47
2023-03-11T11:47:27.784Z,108.13
2023-03-11T11:50:02.017Z,71.88
2023-03-11T11:52:37.759Z,45.38
2023-03-11T11:55:18.556Z,40.22
2023-03-11T11:57:46.447Z,45.13
2023-03-11T12:00:25.029Z,26.80
2023-03-11T12:03:12.712Z,26.23
2023-03-11T12:06:07.162Z,16.83
2023-03-11T12:08:45.662Z,20.15
2023-03-11T12:11:28.959Z,13.15
2023-03-11T12:14:20.300Z,9.38
2023-03-11T12:17:01.977Z,9.43
2023-03-11T12:19:43.353Z,14.02
2023-03-11T12:22:28.271Z,30.65
2023-03-11T12:25:15.124Z,24.40
2023-03-11T12:27:58.498Z,9.05
2023-03-11T12:30:32.874Z,7.53
2023-03-11T12:33:07.492Z,7.38
2023-03-11T12:35:37.042Z,12.32
2023-03-11T12:38:13.320Z,7.15
2023-03-11T12:40:49.994Z,7.40
2023-03-11T12:43:51.770Z,4.68
2023-03-11T12:46:42.360Z,7.43
2023-03-11T12:49:14.944Z,20.35
2023-03-11T12:52:09.327Z,27.20
2023-03-11T12:54:37.529Z,38.75
2023-03-11T12:57:17.242Z,16.25
2023-03-11T13:00:21.684Z,11.50
2023-03-11T13:03:30.098Z,10.77
2023-03-11T13:06:02.729Z,10.60
2023-03-11T13:08:48.401Z,8.13
2023-03-11T13:11:33.668Z,10.75
2023-03-11T13:14:18.198Z,11.57
2023-03-11T13:16:46.380Z,8.95
2023-03-11T13:19:34.559Z,5.85
2023-03-11T13:22:04.088Z,5.45
2023-03-11T13:24:31.481Z,4.13
2023-03-11T13:26:58.420Z,12.68
2023-03-11T13:29:45.178Z,27.25
2023-03-11T13:32:21.512Z,5.70
2023-03-11T13:35:03.637Z,5.93
2023-03-11T13:37:36.485Z,4.85
2023-03-11T13:40:14.161Z,4.80
2023-03-11T13:42:56.096Z,5.68
2023-03-11T13:45:35.153Z,5.55
2023-03-11T13:48:44.844Z,28.75
2023-03-11T13:51:27.780Z,69.07
2023-03-11T13:53:59.884Z,22.60
2023-03-11T13:56:31.207Z,24.92
2023-03-11T13:59:23.699Z,13.98
2023-03-11T14:02:00.966Z,8.52
2023-03-11T14:04:32.092Z,20.05
2023-03-11T14:07:35.339Z,63.58
2023-03-11T14:10:11.881Z,18.10
2023-03-11T14:12:39.978Z,35.53
2023-03-11T14:15:17.999Z,19.67
2023-03-11T14:17:48.676Z,13.27
2023-03-11T14:20:30.402Z,19.42
2023-03-11T14:22:57.838Z,9.95
2023-03-11T14:25:31.115Z,13.95
2023-03-11T14:28:05.833Z,9.77
2023-03-11T14:30:34.574Z,10.27
2023-03-11T14:33:05.193Z,7.20
2023-03-11T14:35:34.003Z,5.95
2023-03-11T14:38:01.867Z,8.50
2023-03-11T14:40:37.790Z,11.23
2023-03-11T14:43:08.186Z,14.93
2023-03-11T14:45:39.780Z,29.65
2023-03-11T14:48:32.830Z,28.10
2023-03-11T14:51:03.713Z,45.47
2023-03-11T14:53:39.289Z,81.70
2023-03-11T14:58:44.408Z,231.50
2023-03-11T15:01:20.527Z,73.28
2023-03-11T15:03:53.381Z,125.95
2023-03-11T15:06:25.789Z,46.38
2023-03-11T15:09:12.860Z,55.78
2023-03-11T15:11:55.248Z,94.55
2023-03-11T15:14:31.579Z,26.40
2023-03-11T15:17:35.437Z,21.08
2023-03-11T15:20:25.480Z,23.25
2023-03-11T15:23:02.059Z,32.55
2023-03-11T15:25:37.336Z,34.70
2023-03-11T15:28:28.930Z,17.65
2023-03-11T15:31:21.510Z,24.00
2023-03-11T15:33:51.789Z,30.17
2023-03-11T15:36:39.500Z,52.17
2023-03-11T15:39:18.718Z,42.88
2023-03-11T15:42:03.767Z,28.60
2023-03-11T15:44:54.638Z,18.50
2023-03-11T15:47:23.419Z,17.20
2023-03-11T15:49:51.606Z,15.10
2023-03-11T15:52:19.659Z,13.05
2023-03-11T15:54:55.011Z,15.27
2023-03-11T15:57:27.782Z,11.07
2023-03-11T16:00:00.316Z,8.02
2023-03-11T16:02:30.325Z,10.27
2023-03-11T16:04:59.506Z,12.07
2023-03-11T16:07:39.177Z,10.55
2023-03-11T16:10:08.779Z,9.43
2023-03-11T16:12:36.582Z,15.80
2023-03-11T16:15:07.478Z,13.35
2023-03-11T16:17:48.790Z,17.75
2023-03-11T16:20:16.373Z,14.32
2023-03-11T16:22:43.778Z,11.00
2023-03-11T16:25:31.274Z,10.93
2023-03-11T16:27:59.518Z,9.25
2023-03-11T16:30:28.480Z,9.82
2023-03-11T16:33:04.582Z,7.47
2023-03-11T16:35:32.705Z,9.00
2023-03-11T16:38:00.501Z,7.00
2023-03-11T16:40:31.735Z,11.95
2023-03-11T16:43:09.800Z,7.03
2023-03-11T16:45:37.269Z,8.98
2023-03-11T16:48:05.623Z,8.48
2023-03-11T16:50:37.534Z,27.85
2023-03-11T16:53:05.370Z,31.23
2023-03-11T16:55:33.642Z,14.10
2023-03-11T16:58:01.394Z,7.70
2023-03-11T17:00:28.892Z,8.02
2023-03-11T17:02:56.634Z,10.32
2023-03-11T17:05:23.932Z,6.63
2023-03-11T17:08:01.812Z,6.25
2023-03-11T17:10:29.352Z,7.75
2023-03-11T17:12:57.249Z,8.48
2023-03-11T17:15:27.505Z,10.52
2023-03-11T17:17:55.273Z,18.27
2023-03-11T17:20:22.667Z,16.23
2023-03-11T17:22:51.020Z,16.75
2023-03-11T17:25:18.544Z,13.18
2023-03-11T17:27:45.673Z,10.32
2023-03-11T17:30:14.913Z,12.57
2023-03-11T17:32:43.459Z,17.38
2023-03-11T17:35:10.838Z,10.48
2023-03-11T17:37:37.937Z,10.38
2023-03-11T17:40:05.823Z,10.10
2023-03-11T17:42:33.708Z,12.18
2023-03-11T17:45:01.598Z,12.55
2023-03-11T17:47:28.948Z,11.80
2023-03-11T17:49:56.589Z,22.52
2023-03-11T17:52:23.914Z,24.27
2023-03-11T17:54:53.453Z,23.55
2023-03-11T17:57:20.557Z,12.88
2023-03-11T17:59:52.632Z,11.52
2023-03-11T18:02:20.468Z,10.35
2023-03-11T18:04:55.424Z,9.57
2023-03-11T18:07:23.715Z,12.30
2023-03-11T18:09:53.230Z,14.13
2023-03-11T18:12:21.457Z,16.05
2023-03-11T18:14:49.432Z,24.17
2023-03-11T18:17:18.553Z,49.60
2023-03-11T18:19:46.441Z,20.95
2023-03-11T18:22:13.553Z,15.00
2023-03-11T18:24:40.942Z,13.90
2023-03-11T18:27:10.407Z,13.15
2023-03-11T18:29:37.880Z,12.88
2023-03-11T18:32:05.234Z,9.60
2023-03-11T18:34:33.121Z,15.20
2023-03-11T18:37:00.402Z,11.50
2023-03-11T18:39:28.045Z,17.13
2023-03-11T18:41:58.115Z,18.33
2023-03-11T18:44:25.887Z,13.20
2023-03-11T18:46:52.943Z,14.10
2023-03-11T18:49:20.399Z,17.25
2023-03-11T18:51:47.568Z,20.50
2023-03-11T18:54:15.130Z,22.77
2023-03-11T18:56:42.437Z,24.27
2023-03-11T18:59:12.085Z,10.93
2023-03-11T19:01:39.317Z,11.82
2023-03-11T19:04:07.006Z,19.13
2023-03-11T19:06:34.303Z,15.93
2023-03-11T19:09:03.641Z,20.20
2023-03-11T19:11:31.078Z,25.70
2023-03-11T19:14:01.859Z,23.30
2023-03-11T19:16:29.177Z,39.88
2023-03-11T19:18:56.632Z,41.05
2023-03-11T19:21:25.832Z,31.60
2023-03-11T19:23:55.385Z,13.20
2023-03-11T19:26:43.162Z,16.73
2023-03-11T19:29:12.086Z,16.67
2023-03-11T19:31:39.374Z,11.55
2023-03-11T19:34:11.148Z,9.45
2023-03-11T19:36:39.317Z,13.90
2023-03-11T19:39:07.042Z,11.55
2023-03-11T19:41:34.476Z,9.60
2023-03-11T19:44:04.327Z,9.13
2023-03-11T19:46:34.795Z,10.57
2023-03-11T19:49:03.404Z,16.63
2023-03-11T19:51:42.544Z,13.82
2023-03-11T19:54:16.582Z,15.02
2023-03-11T19:56:44.005Z,11.88
2023-03-11T19:59:11.740Z,15.60
2023-03-11T20:01:38.926Z,12.23
2023-03-11T20:04:06.544Z,10.45
2023-03-11T20:06:33.917Z,8.23
2023-03-11T20:09:01.672Z,8.52
2023-03-11T20:11:31.922Z,9.18
2023-03-11T20:14:01.285Z,9.43
2023-03-11T20:16:31.485Z,7.72
2023-03-11T20:18:59.351Z,16.50
2023-03-11T20:21:26.791Z,10.32
2023-03-11T20:23:57.522Z,16.05
2023-03-11T20:26:24.982Z,12.10
2023-03-11T20:28:56.332Z,10.05
2023-03-11T20:31:27.138Z,10.82
2023-03-11T20:33:56.460Z,10.00
2023-03-11T20:36:26.788Z,14.77
2023-03-11T20:38:55.346Z,12.50
2023-03-11T20:41:24.101Z,11.68
2023-03-11T20:43:53.345Z,11.82
2023-03-11T20:46:20.858Z,12.75
2023-03-11T20:48:48.317Z,12.70
2023-03-11T20:51:20.265Z,14.15
2023-03-11T20:53:49.228Z,14.63
2023-03-11T20:56:19.494Z,12.77
2023-03-11T20:58:50.910Z,12.82
2023-03-11T21:01:22.351Z,15.00
2023-03-11T21:03:52.293Z,12.55
2023-03-11T21:06:25.496Z,13.27
2023-03-11T21:08:57.960Z,18.52
2023-03-11T21:11:25.987Z,20.42
2023-03-11T21:13:57.207Z,13.25
2023-03-11T21:16:24.760Z,16.10
2023-03-11T21:18:53.850Z,10.95
2023-03-11T21:21:22.265Z,10.10
2023-03-11T21:23:50.029Z,11.10
2023-03-11T21:26:19.624Z,11.63
2023-03-11T21:28:47.903Z,27.08
2023-03-11T21:31:21.962Z,66.40
2023-03-11T21:33:53.167Z,29.30
2023-03-11T21:36:20.769Z,45.63
2023-03-11T21:38:48.762Z,27.88
2023-03-11T21:41:19.275Z,20.05
2023-03-11T21:43:49.172Z,23.67
2023-03-11T21:46:19.235Z,14.35
2023-03-11T21:48:47.505Z,14.82
2023-03-11T21:51:16.551Z,23.20
2023-03-11T21:53:44.058Z,38.88
2023-03-11T21:56:13.682Z,34.05
2023-03-11T21:58:43.534Z,31.38
2023-03-11T22:01:12.252Z,23.48
2023-03-11T22:03:39.657Z,19.80
2023-03-11T22:06:10.725Z,16.13
2023-03-11T22:08:37.906Z,17.48
2023-03-11T22:11:12.803Z,20.67
2023-03-11T22:13:40.059Z,14.98
2023-03-11T22:16:10.258Z,18.48
2023-03-11T22:18:39.570Z,19.83
2023-03-11T22:21:09.976Z,20.38
2023-03-11T22:23:37.526Z,21.15
2023-03-11T22:26:04.966Z,29.58
2023-03-11T22:28:32.437Z,16.45
2023-03-11T22:30:59.852Z,12.88
2023-03-11T22:33:27.104Z,13.18
2023-03-11T22:35:56.767Z,14.15
2023-03-11T22:38:24.309Z,14.40
2023-03-11T22:40:53.707Z,13.93
2023-03-11T22:43:20.716Z,11.23
2023-03-11T22:45:48.863Z,11.90
2023-03-11T22:48:19.029Z,9.63
2023-03-11T22:50:47.183Z,13.48
2023-03-11T22:53:15.230Z,13.02
2023-03-11T22:55:44.491Z,12.05
2023-03-11T22:58:12.780Z,11.98
2023-03-11T23:00:40.765Z,10.48
2023-03-11T23:03:07.766Z,9.75
2023-03-11T23:05:41.775Z,9.60
2023-03-11T23:08:29.058Z,9.65
2023-03-11T23:10:57.159Z,10.13
2023-03-11T23:13:24.224Z,10.38
2023-03-11T23:15:51.918Z,9.05
2023-03-11T23:18:20.382Z,12.57
2023-03-11T23:20:47.968Z,10.30
2023-03-11T23:23:15.112Z,9.98
2023-03-11T23:25:42.573Z,11.45
2023-03-11T23:28:09.717Z,9.77
2023-03-11T23:30:37.331Z,11.50
2023-03-11T23:33:05.783Z,8.88
2023-03-11T23:35:33.512Z,10.95
2023-03-11T23:38:00.912Z,10.30
2023-03-11T23:40:28.722Z,10.77
2023-03-11T23:42:55.865Z,10.77
2023-03-11T23:45:23.173Z,10.80
2023-03-11T23:47:50.355Z,11.25
2023-03-11T23:50:17.970Z,13.95
2023-03-11T23:52:45.187Z,21.02
2023-03-11T23:55:13.191Z,25.33
2023-03-11T23:57:40.676Z,14.60
